Terminal Aerodrome Forecast
Issued by NWS

Current Version | Previous Version | Graphics & Text | Print | Product List | Glossary On
Versions: 1 2 3 4 5 6 7 8 9 10 11 12 13 14 15 16 17 18 19 20 21 22 23 24 25 26
000
FTUS41 KILN 261100
TAFLUK
TAF
KLUK 261138Z 2612/2712 00000KT 3SM BR SKC
     FM261300 20005KT P6SM SCT200
     FM261500 20009G15KT P6SM SCT200
     FM270200 18004KT P6SM SCT035 BKN200=

USA.gov is the U.S. government's official web portal to all federal, state and local government web resources and services.